This vehicle configuration does not work with the following product:
Unfortunately we don’t currently have a roof rack that fits your vehicle. If you live in the Portland OR area and would like to assist Yakima in creating a solution by allowing us access to your car we would be happy to offer you a special deal. Please contact the Yakima FIT Team at Fit@yakima.com for more details.
Name: Email:| Fit ID | Published | Vehicle | Location | Rack System |
| 116762 | 07/05/2026 04:41 | 2026-2026 MG 4 EV Urban 5dr | trunk | StrapRack |
| 116747 | 07/05/2026 04:40 | 2026-2026 MG 4 EV Urban 5dr | trunk | StrapRack |
| 116754 | 07/05/2026 04:38 | 2026-2026 MG 4 EV Urban 5dr | top | KKitFlushRail |
| 116744 | 07/05/2026 04:38 | 2026-2026 MG 4 EV Urban 5dr | hitch | MOD |
| 116751 | 07/05/2026 04:34 | 2025-2026 Kia K4 5dr | top | SkyLine |
| 116753 | 07/05/2026 04:33 | 2025-2026 Kia K4 5dr | top | SkyLineFX |
| 116752 | 07/05/2026 04:31 | 2025-2026 Kia K4 5dr | top | SkyLine |
| 116750 | 07/05/2026 04:28 | 2026-2026 Mercedes-Benz CLA EV 4dr | top | BaseLine |
| 116748 | 07/05/2026 04:17 | 2017-2023 Subaru Impreza 5dr | top | KKitRaisedRail |
| 116706 | 07/05/2026 04:16 | 2022-2026 Renault Austral 5dr | top | KKitFlushRail |
| 116680 | 07/05/2026 04:13 | 2023-2026 Renault Espace 5dr | top | KKitFlushRail |
| 112985 | 07/05/2026 04:08 | 2025-2026 Kia K4 5dr | trunk | StrapRack |
| 115830 | 07/05/2026 04:06 | 2026-2026 Kia K4 w/ Panoramic Roof 5dr | top | BaseLineFX |
| 115828 | 07/05/2026 04:05 | 2026-2026 Kia K4 w/ Panoramic Roof 5dr | top | BaseLine |
| 115312 | 07/05/2026 04:02 | 2026-2026 Kia K4 w/ Panoramic Roof 5dr | trunk | StrapRack |
| 114099 | 07/05/2026 04:01 | 2025-2026 Kia K4 w/ Panoramic Roof 4dr | top | BaseLineFX |
| 114098 | 07/05/2026 03:59 | 2025-2026 Kia K4 w/ Panoramic Roof 4dr | top | BaseLine |
| 114097 | 07/05/2026 03:53 | 2025-2026 Kia K4 w/ Panoramic Roof 4dr | trunk | StrapRack |
| 116733 | 07/05/2026 03:50 | 2022-2026 Honda HR-V 5dr | trunk | StrapRack |
| 115219 | 07/05/2026 03:33 | 2013-2020 Audi A3/S3/RS3 4dr | trunk | StrapRack |
| 115220 | 07/05/2026 03:33 | 2013-2020 Audi A3/S3/RS3 4dr | trunk | StrapRack |
| 116705 | 07/05/2026 03:05 | 2022-2026 Jeep Avenger 5dr | top | KKitRaisedRail |
| 116704 | 07/05/2026 03:04 | 2022-2026 Jeep Avenger 5dr | top | TimberLineFX |
| 116676 | 07/05/2026 03:03 | 2022-2026 Jeep Avenger 5dr | top | TimberLine |
| 113107 | 07/05/2026 03:01 | 2023-2026 Volkswagen Amarok Double Cab 4dr | top | DirecttoLNLPlatform |
| 115851 | 07/05/2026 02:59 | 2015-2019 Mercedes-Benz GLE Coupe 5dr | top | BaseLineFX |
| 115852 | 07/05/2026 02:58 | 2015-2019 Mercedes-Benz GLE Coupe 5dr | top | BaseLine |
| 115853 | 07/05/2026 02:57 | 2015-2019 Mercedes-Benz GLE Coupe 5dr | trunk | StrapRack |
| 115859 | 07/05/2026 02:56 | 2008-2015 Mercedes-Benz GLK-Class 5dr | top | TimberLine |
| 115862 | 07/05/2026 02:54 | 2013-2019 Mercedes-Benz GLS 5dr | top | TimberLineFX |
| 115866 | 07/05/2026 02:54 | 2013-2019 Mercedes-Benz GLS 5dr | top | TimberLine |
| 115870 | 07/05/2026 02:52 | 2020-2025 Mercedes-Benz GLS 5dr | top | TimberLineFX |
| 115876 | 07/05/2026 02:51 | 1998-2005 Mercedes-Benz M-Class 5dr | top | TimberLine |
| 115882 | 07/05/2026 02:51 | 2006-2011 Mercedes-Benz M-Class 5dr | top | TimberLineFX |
| 115889 | 07/05/2026 02:50 | 2012-2015 Mercedes-Benz M-Class 5dr | top | TimberLine |
| 115902 | 07/05/2026 02:49 | 2022-2026 Mercedes-Benz GLC Coupe 5dr | top | SkyLine |
| 115903 | 07/05/2026 02:48 | 2022-2026 Mercedes-Benz GLC Coupe 5dr | top | SkyLineFX |
| 115901 | 07/05/2026 02:48 | 2022-2026 Mercedes-Benz GLC Coupe 5dr | top | SkyLine |
| 113992 | 07/05/2026 02:44 | 2026-2026 Kia EV4 5dr | top | SkyLineFX |
| 115201 | 07/05/2026 02:41 | 2010-2023 Mitsubishi ASX 5dr | top | DirecttoLNLPlatform |
| 115198 | 07/05/2026 02:41 | 2015-2025 Mercedes-Benz V-Class 4dr | top | DirecttoLNLPlatform |
| 115077 | 07/05/2026 02:40 | 2017-2024 Volkswagen Tiguan Allspace 5dr | top | DirecttoLNLPlatform |
| 115054 | 07/05/2026 02:39 | 2013-2023 Mazda 6 Wagon | top | DirecttoLNLPlatform |
| 116707 | 07/05/2026 02:38 | 2006-2013 Mercedes-Benz S-Class 4dr | trunk | StrapRack |
| 116709 | 07/05/2026 02:37 | 2006-2013 Mercedes-Benz S-Class 4dr | trunk | StrapRack |
| 116712 | 07/05/2026 02:37 | 2014-2020 Mercedes-Benz S-Class 4dr | top | SkyLineFX |
| 116711 | 07/05/2026 02:36 | 2014-2020 Mercedes-Benz S-Class 4dr | top | SkyLine |
| 116713 | 07/05/2026 02:35 | 2014-2020 Mercedes-Benz S-Class 4dr | trunk | StrapRack |
| 116715 | 07/05/2026 02:34 | 2014-2020 Mercedes-Benz S-Class 4dr | trunk | StrapRack |
| 116719 | 07/05/2026 02:32 | 2021-2026 Mercedes-Benz S-Class 4dr | trunk | StrapRack |
| 116721 | 07/05/2026 02:32 | 2021-2026 Mercedes-Benz S-Class 4dr | trunk | StrapRack |
| 116726 | 07/05/2026 02:31 | 2023-2026 Peugeot 408 5dr | hitch | MOD |
| 115052 | 07/05/2026 02:29 | 2009-2012 Hyundai Santa Fe 5dr | top | DirecttoLNLPlatform |
| 114541 | 07/05/2026 02:28 | 2003-2008 Honda Accord Euro 4dr | top | KKitClampMount |
| 114540 | 07/05/2026 02:27 | 2008-2012 Honda Accord Euro 4dr | top | BaseLine |
| 114538 | 07/05/2026 02:26 | 2008-2012 Honda Accord Euro 4dr | top | KKitClampMount |
| 114539 | 07/05/2026 02:26 | 2008-2012 Honda Accord Euro 4dr | top | BaseLineFX |
| 114485 | 07/05/2026 02:23 | 2022-2026 Nissan Qashqai 5dr | top | SightLine |
| 114440 | 07/05/2026 02:09 | 2018-2026 Opel Combo 5dr | top | TimberLine |
| 114441 | 07/05/2026 02:09 | 2018-2026 Opel Combo 5dr | top | TimberLineFX |
| 114439 | 07/05/2026 02:08 | 2018-2026 Opel Combo 5dr | top | KKitRaisedRail |
| 114306 | 07/05/2026 02:03 | 2021-2026 Fiat Scudo 5dr | top | KKitFixedPoint |
| 114293 | 07/05/2026 01:52 | 2007-2022 Mitsubishi Shogun 5dr | top | DirecttoLNLPlatform |
| 114219 | 07/05/2026 01:51 | 2022-2026 Fiat Doblo 5dr | top | TimberLine |
| 114143 | 07/05/2026 01:50 | 2025-2026 Suzuki E Vitara 5dr | top | BaseLineFX |
| 114140 | 07/05/2026 01:49 | 2025-2026 Suzuki E Vitara 5dr | top | BaseLine |
| 114108 | 07/05/2026 01:40 | 2006-2010 Kia Magentis 4dr | top | BaseLineFX |
| 114107 | 07/05/2026 01:39 | 2006-2010 Kia Magentis 4dr | top | BaseLine |
| 114047 | 07/05/2026 01:34 | 2025-2026 Peugeot 5008 5dr | top | KKitFlushRail |
| 113013 | 07/05/2026 01:29 | 2021-2026 Haval H6 (excludes GT model) 5dr | top | SightLineFX |
| 113012 | 07/05/2026 01:28 | 2021-2026 Haval H6 (excludes GT model) 5dr | top | SightLine |
| 113011 | 07/05/2026 01:26 | 2021-2026 Haval H6 (excludes GT model) 5dr | top | KKitFlushRail |
| 113980 | 07/05/2026 11:00 | 2016-2022 Ford Everest 5dr | top | RuggedLine |
| 113976 | 07/05/2026 10:59 | 2016-2022 Ford Everest 5dr | top | KKitFlushRail |
| 113969 | 07/05/2026 10:54 | 2012-2019 Peugeot 208 3dr | top | KKitClampMount |
| 105698 | 07/05/2026 10:41 | 2023-2026 Land Rover Defender 130 5dr | top | KKitOther |
| 113753 | 07/05/2026 10:39 | 2020-2026 Isuzu D-Max Crew Cab 4dr | trunk | TruckbedSystem |
| 113754 | 07/05/2026 10:38 | 2020-2026 Isuzu D-Max Crew Cab 4dr | trunk | TruckbedSystem |
| 113755 | 07/05/2026 10:38 | 2020-2026 Isuzu D-Max Crew Cab 4dr | trunk | TruckbedSystem |
| 113634 | 06/05/2026 12:49 | 2026-2026 Riddara RD6 PHEV 4dr | top | TimberLine |
| 113114 | 06/05/2026 12:22 | 2023-2026 Volkswagen Amarok Double Cab 4dr | top | TimberLine |
| 113115 | 06/05/2026 12:22 | 2023-2026 Volkswagen Amarok Double Cab 4dr | top | BaseLine |
| 113112 | 06/05/2026 12:21 | 2023-2026 Volkswagen Amarok Double Cab 4dr | top | TimberLineFX |
| 113113 | 06/05/2026 12:21 | 2023-2026 Volkswagen Amarok Double Cab 4dr | top | BaseLineFX |
| 113104 | 06/05/2026 12:14 | 2023-2026 Volkswagen Amarok Double Cab 4dr | top | TrimHD |
| 113103 | 06/05/2026 12:13 | 2023-2026 Volkswagen Amarok Double Cab 4dr | top | KKitClampMount |
| 113102 | 06/05/2026 12:00 | 2023-2026 Volkswagen Amarok Double Cab 4dr | top | KKitRaisedRail |
This vehicle configuration does not work with the following product:
Unfortunately we don’t currently have a roof rack that fits your vehicle. If you live in the Portland OR area and would like to assist Yakima in creating a solution by allowing us access to your car we would be happy to offer you a special deal. Please contact the Yakima FIT Team at Fit@yakima.com for more details.
Name: Email:
As our valuable partner, Yakima is sharing our "Confidential Information" with you. Of course this comes with some responsibilities. This benefit is confidential and should be kept Confidential.
Partner will not use any Confidential Information for any purpose other than to inform consumers of the right Yakima product fit. Partners will hold all Confidential Information in strict confidence and will not Disclose.
As our partner, you agree to protect all Confidential Information by using the same degree of care regarding the Confidential Information that Partner would exercise regarding its own confidential information, but not less than a reasonable standard of care.
Accept Terms And Conditions